createdAt,value
2022-11-06T00:01:07.317Z,100402.64
2022-11-06T00:03:34.444Z,100404.41
2022-11-06T00:06:24.796Z,100405.23
2022-11-06T00:08:51.681Z,100407.02
2022-11-06T00:11:18.916Z,100406.38
2022-11-06T00:13:47.593Z,100406.05
2022-11-06T00:16:14.769Z,100405.77
2022-11-06T00:18:41.831Z,100399.47
2022-11-06T00:21:09.240Z,100400.82
2022-11-06T00:23:36.040Z,100396.91
2022-11-06T00:26:09.696Z,100394.64
2022-11-06T00:28:36.529Z,100395.48
2022-11-06T00:31:03.945Z,100394.42
2022-11-06T00:33:30.943Z,100393.93
2022-11-06T00:35:57.755Z,100393.08
2022-11-06T00:38:24.759Z,100394.23
2022-11-06T00:40:51.374Z,100388.19
2022-11-06T00:43:18.423Z,100388.23
2022-11-06T00:45:45.168Z,100386.66
2022-11-06T00:48:12.401Z,100385.87
2022-11-06T00:50:39.458Z,100382.48
2022-11-06T00:53:06.249Z,100376.36
2022-11-06T00:55:33.179Z,100379.25
2022-11-06T00:57:59.904Z,100375.69
2022-11-06T01:00:26.657Z,100377.29
2022-11-06T01:02:53.416Z,100375.33
2022-11-06T01:05:20.253Z,100370.56
2022-11-06T01:07:46.956Z,100377.63
2022-11-06T01:10:13.683Z,100383.09
2022-11-06T01:12:40.480Z,100385.13
2022-11-06T01:15:07.514Z,100387.48
2022-11-06T01:17:35.138Z,100389.77
2022-11-06T01:20:02.580Z,100391.45
2022-11-06T01:22:29.410Z,100386.55
2022-11-06T01:24:56.096Z,100394.17
2022-11-06T01:27:27.232Z,100385.65
2022-11-06T01:29:55.046Z,100384.76
2022-11-06T01:32:21.862Z,100382.23
2022-11-06T01:34:49.380Z,100380.84
2022-11-06T01:37:16.137Z,100383.54
2022-11-06T01:39:42.936Z,100379.89
2022-11-06T01:42:10.659Z,100375.56
2022-11-06T01:44:43.617Z,100370.99
2022-11-06T01:47:28.458Z,100372.28
2022-11-06T01:49:58.224Z,100373.20
2022-11-06T01:52:25.122Z,100373.16
2022-11-06T01:54:53.116Z,100373.87
2022-11-06T01:57:19.874Z,100375.45
2022-11-06T01:59:46.676Z,100377.73
2022-11-06T02:02:14.225Z,100382.46
2022-11-06T02:04:43.551Z,100381.05
2022-11-06T02:07:10.655Z,100379.81
2022-11-06T02:09:37.410Z,100376.48
2022-11-06T02:12:10.234Z,100375.77
2022-11-06T02:15:01.976Z,100375.54
2022-11-06T02:17:53.853Z,100376.07
2022-11-06T02:20:33.105Z,100375.56
2022-11-06T02:23:21.944Z,100375.70
2022-11-06T02:26:13.183Z,100373.83
2022-11-06T02:28:41.911Z,100374.36
2022-11-06T02:31:12.532Z,100370.24
2022-11-06T02:33:44.723Z,100372.00
2022-11-06T02:36:16.830Z,100374.91
2022-11-06T02:38:45.618Z,100374.88
2022-11-06T02:41:23.903Z,100374.45
2022-11-06T02:43:52.862Z,100372.88
2022-11-06T02:46:28.613Z,100374.98
2022-11-06T02:49:13.035Z,100380.09
2022-11-06T02:51:43.609Z,100379.16
2022-11-06T02:54:10.314Z,100382.45
2022-11-06T02:56:39.128Z,100380.02
2022-11-06T02:59:17.417Z,100375.05
2022-11-06T03:01:50.217Z,100373.91
2022-11-06T03:04:38.341Z,100377.17
2022-11-06T03:07:12.191Z,100376.48
2022-11-06T03:09:39.090Z,100377.82
2022-11-06T03:12:10.419Z,100374.77
2022-11-06T03:14:46.049Z,100375.20
2022-11-06T03:17:25.351Z,100377.52
2022-11-06T03:19:55.944Z,100375.00
2022-11-06T03:22:41.011Z,100367.88
2022-11-06T03:25:19.958Z,100363.97
2022-11-06T03:28:03.856Z,100368.75
2022-11-06T03:30:32.240Z,100366.86
2022-11-06T03:33:19.946Z,100371.95
2022-11-06T03:36:03.347Z,100364.98
2022-11-06T03:38:54.893Z,100366.23
2022-11-06T03:41:32.301Z,100362.59
2022-11-06T03:43:59.460Z,100359.36
2022-11-06T03:46:26.306Z,100355.13
2022-11-06T03:48:54.273Z,100357.63
2022-11-06T03:51:41.440Z,100356.45
2022-11-06T03:54:12.757Z,100351.70
2022-11-06T03:56:42.899Z,100345.04
2022-11-06T03:59:09.751Z,100342.83
2022-11-06T04:01:37.549Z,100343.38
2022-11-06T04:04:10.470Z,100344.13
2022-11-06T04:06:42.912Z,100348.17
2022-11-06T04:09:28.967Z,100359.23
2022-11-06T04:12:15.311Z,100362.22
2022-11-06T04:14:43.528Z,100358.89
2022-11-06T04:17:10.981Z,100357.76
2022-11-06T04:19:37.717Z,100357.21
2022-11-06T04:22:27.911Z,100359.63
2022-11-06T04:25:47.787Z,100357.95
2022-11-06T04:28:26.677Z,100358.00
2022-11-06T04:31:03.655Z,100354.30
2022-11-06T04:33:58.294Z,100347.40
2022-11-06T04:36:46.153Z,100355.38
2022-11-06T04:39:22.830Z,100351.56
2022-11-06T04:42:04.066Z,100351.73
2022-11-06T04:44:32.264Z,100352.59
2022-11-06T04:47:00.743Z,100352.02
2022-11-06T04:49:28.636Z,100357.17
2022-11-06T04:51:55.389Z,100360.58
2022-11-06T04:54:24.274Z,100361.21
2022-11-06T04:56:51.073Z,100368.27
2022-11-06T04:59:18.080Z,100373.58
2022-11-06T05:01:45.684Z,100373.61
2022-11-06T05:04:12.527Z,100373.95
2022-11-06T05:06:39.240Z,100374.48
2022-11-06T05:09:05.919Z,100381.26
2022-11-06T05:11:32.645Z,100382.36
2022-11-06T05:13:59.502Z,100385.37
2022-11-06T05:16:26.392Z,100391.03
2022-11-06T05:18:53.075Z,100391.63
2022-11-06T05:21:38.606Z,100396.20
2022-11-06T05:24:05.800Z,100397.51
2022-11-06T05:26:32.767Z,100398.67
2022-11-06T05:28:59.941Z,100395.80
2022-11-06T05:31:27.057Z,100396.99
2022-11-06T05:33:53.906Z,100397.50
2022-11-06T05:36:20.557Z,100394.71
2022-11-06T05:38:47.294Z,100388.73
2022-11-06T05:41:14.047Z,100402.16
2022-11-06T05:43:41.094Z,100399.17
2022-11-06T05:46:23.879Z,100404.11
2022-11-06T05:48:54.691Z,100406.52
2022-11-06T05:51:21.824Z,100409.26
2022-11-06T05:53:48.577Z,100411.02
2022-11-06T05:56:15.236Z,100412.64
2022-11-06T05:58:42.037Z,100413.93
2022-11-06T06:01:09.618Z,100409.70
2022-11-06T06:03:36.379Z,100415.90
2022-11-06T06:06:03.150Z,100421.51
2022-11-06T06:08:29.844Z,100419.39
2022-11-06T06:10:56.602Z,100417.09
2022-11-06T06:13:23.333Z,100416.56
2022-11-06T06:15:50.607Z,100419.97
2022-11-06T06:18:17.362Z,100417.03
2022-11-06T06:20:44.049Z,100420.85
2022-11-06T06:23:10.804Z,100420.80
2022-11-06T06:25:37.530Z,100425.80
2022-11-06T06:28:04.246Z,100422.89
2022-11-06T06:30:31.553Z,100421.30
2022-11-06T06:33:03.799Z,100426.65
2022-11-06T06:35:30.564Z,100429.70
2022-11-06T06:37:57.306Z,100432.20
2022-11-06T06:40:24.139Z,100434.23
2022-11-06T06:42:50.776Z,100434.77
2022-11-06T06:45:17.569Z,100435.66
2022-11-06T06:47:44.372Z,100440.90
2022-11-06T06:50:11.177Z,100438.83
2022-11-06T06:52:37.948Z,100441.37
2022-11-06T06:55:05.708Z,100431.28
2022-11-06T06:57:32.513Z,100429.86
2022-11-06T06:59:59.162Z,100442.37
2022-11-06T07:02:26.102Z,100442.08
2022-11-06T07:04:52.972Z,100447.22
2022-11-06T07:07:19.815Z,100448.80
2022-11-06T07:09:46.540Z,100447.44
2022-11-06T07:12:13.344Z,100449.27
2022-11-06T07:14:40.034Z,100442.66
2022-11-06T07:17:06.754Z,100446.05
2022-11-06T07:19:33.510Z,100446.83
2022-11-06T07:24:59.377Z,100445.89
2022-11-06T07:27:26.326Z,100448.89
2022-11-06T07:29:53.057Z,100450.77
2022-11-06T07:32:19.871Z,100453.67
2022-11-06T07:34:46.713Z,100454.89
2022-11-06T07:37:13.862Z,100454.73
2022-11-06T07:39:40.588Z,100454.48
2022-11-06T07:42:07.313Z,100457.95
2022-11-06T07:44:35.336Z,100457.24
2022-11-06T07:47:02.050Z,100457.86
2022-11-06T07:49:28.778Z,100464.33
2022-11-06T07:51:55.529Z,100470.45
2022-11-06T07:54:22.322Z,100471.82
2022-11-06T07:56:48.972Z,100471.38
2022-11-06T07:59:15.846Z,100472.20
2022-11-06T08:01:42.576Z,100470.66
2022-11-06T08:04:10.134Z,100471.41
2022-11-06T08:06:36.983Z,100473.69
2022-11-06T08:09:07.541Z,100475.94
2022-11-06T08:11:34.322Z,100476.29
2022-11-06T08:14:01.312Z,100474.09
2022-11-06T08:16:28.149Z,100476.89
2022-11-06T08:18:55.291Z,100479.44
2022-11-06T08:21:22.001Z,100476.08
2022-11-06T08:23:48.642Z,100479.88
2022-11-06T08:26:15.492Z,100482.33
2022-11-06T08:28:42.547Z,100485.63
2022-11-06T08:31:09.432Z,100483.75
2022-11-06T08:33:37.834Z,100484.29
2022-11-06T08:36:05.263Z,100485.09
2022-11-06T08:38:32.190Z,100486.27
2022-11-06T08:40:58.908Z,100490.73
2022-11-06T08:43:26.706Z,100489.05
2022-11-06T08:45:53.533Z,100486.30
2022-11-06T08:48:20.217Z,100491.05
2022-11-06T08:50:47.022Z,100490.52
2022-11-06T08:53:13.918Z,100486.78
2022-11-06T08:55:40.927Z,100489.42
2022-11-06T08:58:07.647Z,100482.63
2022-11-06T09:00:34.525Z,100490.26
2022-11-06T09:03:07.950Z,100489.39
2022-11-06T09:05:34.667Z,100488.58
2022-11-06T09:08:01.445Z,100489.58
2022-11-06T09:10:28.164Z,100489.23
2022-11-06T09:12:55.835Z,100488.61
2022-11-06T09:15:22.804Z,100489.73
2022-11-06T09:17:50.255Z,100492.61
2022-11-06T09:20:18.900Z,100492.52
2022-11-06T09:22:46.356Z,100488.52
2022-11-06T09:25:13.402Z,100488.08
2022-11-06T09:27:43.897Z,100488.06
2022-11-06T09:30:12.284Z,100485.03
2022-11-06T09:32:39.019Z,100485.36
2022-11-06T09:35:06.259Z,100479.80
2022-11-06T09:37:33.018Z,100483.13
2022-11-06T09:40:05.824Z,100479.96
2022-11-06T09:42:46.711Z,100476.61
2022-11-06T09:45:22.790Z,100481.65
2022-11-06T09:47:52.554Z,100478.08
2022-11-06T09:50:21.975Z,100482.34
2022-11-06T09:52:51.168Z,100484.60
2022-11-06T09:55:25.241Z,100478.83
2022-11-06T09:58:03.503Z,100481.69
2022-11-06T10:00:30.293Z,100481.52
2022-11-06T10:02:57.061Z,100480.47
2022-11-06T10:05:34.488Z,100475.39
2022-11-06T10:08:05.672Z,100473.38
2022-11-06T10:10:41.442Z,100474.33
2022-11-06T10:13:26.473Z,100474.57
2022-11-06T10:15:56.261Z,100471.15
2022-11-06T10:18:35.281Z,100468.86
2022-11-06T10:21:32.601Z,100467.87
2022-11-06T10:24:00.288Z,100462.52
2022-11-06T10:26:47.515Z,100461.19
2022-11-06T10:29:29.242Z,100456.15
2022-11-06T10:32:15.254Z,100454.02
2022-11-06T10:34:46.661Z,100453.95
2022-11-06T10:37:23.892Z,100454.83
2022-11-06T10:39:50.646Z,100453.66
2022-11-06T10:42:19.010Z,100451.98
2022-11-06T10:44:58.441Z,100450.34
2022-11-06T10:47:48.672Z,100452.89
2022-11-06T10:50:15.721Z,100449.73
2022-11-06T10:53:06.403Z,100444.12
2022-11-06T10:55:39.664Z,100444.68
2022-11-06T10:58:11.042Z,100441.77
2022-11-06T11:00:38.672Z,100440.20
2022-11-06T11:03:07.192Z,100439.29
2022-11-06T11:05:40.793Z,100440.51
2022-11-06T11:08:07.707Z,100439.38
2022-11-06T11:10:36.086Z,100436.88
2022-11-06T11:13:08.454Z,100432.09
2022-11-06T11:15:44.353Z,100432.77
2022-11-06T11:18:37.510Z,100431.93
2022-11-06T11:21:15.022Z,100424.64
2022-11-06T11:23:41.820Z,100426.35
2022-11-06T11:26:19.382Z,100423.34
2022-11-06T11:28:56.899Z,100422.60
2022-11-06T11:31:28.954Z,100417.92
2022-11-06T11:33:57.078Z,100419.33
2022-11-06T11:36:23.824Z,100422.30
2022-11-06T11:38:50.567Z,100425.27
2022-11-06T11:41:20.264Z,100424.18
2022-11-06T11:43:56.797Z,100417.90
2022-11-06T11:46:23.613Z,100417.08
2022-11-06T11:48:50.420Z,100416.86
2022-11-06T11:51:30.720Z,100416.96
2022-11-06T11:54:01.847Z,100417.73
2022-11-06T11:56:58.187Z,100417.40
2022-11-06T11:59:22.832Z,100417.58
2022-11-06T12:01:49.636Z,100418.33
2022-11-06T12:04:23.823Z,100416.58
2022-11-06T12:06:56.835Z,100417.41
2022-11-06T12:09:23.829Z,100418.58
2022-11-06T12:11:51.582Z,100421.14
2022-11-06T12:14:21.260Z,100423.10
2022-11-06T12:16:49.609Z,100422.43
2022-11-06T12:19:17.565Z,100422.77
2022-11-06T12:21:44.841Z,100425.22
2022-11-06T12:24:22.761Z,100424.35
2022-11-06T12:27:00.056Z,100424.98
2022-11-06T12:29:33.683Z,100427.20
2022-11-06T12:32:23.757Z,100429.39
2022-11-06T12:35:18.649Z,100427.17
2022-11-06T12:38:13.793Z,100429.05
2022-11-06T12:41:10.639Z,100426.60
2022-11-06T12:43:43.649Z,100423.68
2022-11-06T12:46:37.618Z,100422.48
2022-11-06T12:49:07.058Z,100417.27
2022-11-06T12:51:47.721Z,100416.42
2022-11-06T12:54:42.012Z,100416.75
2022-11-06T12:57:20.665Z,100419.08
2022-11-06T13:00:19.575Z,100420.79
2022-11-06T13:03:20.737Z,100419.57
2022-11-06T13:06:10.470Z,100423.13
2022-11-06T13:09:01.089Z,100424.66
2022-11-06T13:12:03.161Z,100429.13
2022-11-06T13:14:41.425Z,100426.46
2022-11-06T13:17:17.100Z,100426.60
2022-11-06T13:20:04.207Z,100428.17
2022-11-06T13:22:49.825Z,100428.13
2022-11-06T13:25:36.678Z,100426.91
2022-11-06T13:28:21.372Z,100431.70
2022-11-06T13:30:48.089Z,100431.91
2022-11-06T13:33:23.287Z,100434.08
2022-11-06T13:35:50.010Z,100429.05
2022-11-06T13:38:28.423Z,100426.36
2022-11-06T13:41:04.718Z,100427.34
2022-11-06T13:43:31.468Z,100421.52
2022-11-06T13:46:22.909Z,100422.09
2022-11-06T13:48:56.521Z,100425.88
2022-11-06T13:51:31.280Z,100419.37
2022-11-06T13:54:10.932Z,100420.50
2022-11-06T13:56:47.958Z,100422.34
2022-11-06T13:59:45.111Z,100419.45
2022-11-06T14:02:29.566Z,100414.73
2022-11-06T14:05:17.847Z,100412.02
2022-11-06T14:07:44.592Z,100412.23
2022-11-06T14:10:21.263Z,100408.91
2022-11-06T14:12:48.074Z,100414.58
2022-11-06T14:15:21.849Z,100413.12
2022-11-06T14:17:59.531Z,100410.36
2022-11-06T14:20:32.679Z,100412.35
2022-11-06T14:23:30.580Z,100406.70
2022-11-06T14:26:05.204Z,100403.45
2022-11-06T14:28:44.530Z,100398.13
2022-11-06T14:31:13.995Z,100400.07
2022-11-06T14:33:40.893Z,100401.34
2022-11-06T14:36:14.438Z,100397.85
2022-11-06T14:38:42.728Z,100394.73
2022-11-06T14:41:34.755Z,100402.33
2022-11-06T14:44:05.890Z,100398.49
2022-11-06T14:46:32.672Z,100397.14
2022-11-06T14:49:10.034Z,100390.98
2022-11-06T14:51:36.694Z,100387.05
2022-11-06T14:54:19.291Z,100386.20
2022-11-06T14:56:50.782Z,100385.64
2022-11-06T14:59:22.685Z,100387.01
2022-11-06T15:01:55.779Z,100384.89
2022-11-06T15:04:22.699Z,100381.04
2022-11-06T15:06:49.916Z,100379.71
2022-11-06T15:09:22.886Z,100378.00
2022-11-06T15:11:52.638Z,100381.61
2022-11-06T15:14:19.350Z,100381.40
2022-11-06T15:16:55.635Z,100382.29
2022-11-06T15:19:27.241Z,100379.59
2022-11-06T15:22:08.218Z,100380.10
2022-11-06T15:24:41.728Z,100375.82
2022-11-06T15:27:12.234Z,100373.37
2022-11-06T15:29:42.458Z,100376.91
2022-11-06T15:32:13.971Z,100374.98
2022-11-06T15:35:01.437Z,100362.45
2022-11-06T15:37:38.902Z,100363.58
2022-11-06T15:40:06.472Z,100361.91
2022-11-06T15:42:36.778Z,100361.13
2022-11-06T15:45:15.634Z,100361.45
2022-11-06T15:47:53.155Z,100351.77
2022-11-06T15:50:22.237Z,100355.95
2022-11-06T15:52:49.060Z,100350.79
2022-11-06T15:55:23.242Z,100348.41
2022-11-06T15:57:50.800Z,100349.30
2022-11-06T16:00:18.276Z,100350.17
2022-11-06T16:02:58.762Z,100354.90
2022-11-06T16:05:25.684Z,100352.08
2022-11-06T16:07:52.331Z,100351.26
2022-11-06T16:10:20.113Z,100352.54
2022-11-06T16:12:50.626Z,100349.23
2022-11-06T16:15:45.129Z,100354.15
2022-11-06T16:18:20.257Z,100354.28
2022-11-06T16:21:10.553Z,100356.59
2022-11-06T16:23:48.768Z,100356.15
2022-11-06T16:26:25.568Z,100347.63
2022-11-06T16:28:52.448Z,100353.35
2022-11-06T16:31:21.786Z,100357.50
2022-11-06T16:33:58.034Z,100360.84
2022-11-06T16:36:26.009Z,100361.46
2022-11-06T16:38:53.299Z,100354.14
2022-11-06T16:41:58.751Z,100362.52
2022-11-06T16:44:32.119Z,100356.88
2022-11-06T16:47:22.779Z,100357.99
2022-11-06T16:49:53.875Z,100361.86
2022-11-06T16:52:30.518Z,100363.40
2022-11-06T16:55:16.770Z,100357.72
2022-11-06T16:57:50.006Z,100360.88
2022-11-06T17:00:19.405Z,100364.61
2022-11-06T17:02:56.666Z,100364.67
2022-11-06T17:05:32.124Z,100360.34
2022-11-06T17:08:20.373Z,100357.55
2022-11-06T17:11:14.642Z,100358.94
2022-11-06T17:13:42.489Z,100375.11
2022-11-06T17:16:17.100Z,100381.93
2022-11-06T17:18:43.962Z,100390.55
2022-11-06T17:21:13.128Z,100389.64
2022-11-06T17:23:39.988Z,100392.35
2022-11-06T17:26:12.538Z,100394.75
2022-11-06T17:28:39.436Z,100392.93
2022-11-06T17:31:06.535Z,100396.42
2022-11-06T17:33:33.660Z,100399.54
2022-11-06T17:36:00.448Z,100395.65
2022-11-06T17:38:27.310Z,100400.41
2022-11-06T17:40:54.092Z,100400.67
2022-11-06T17:43:20.787Z,100403.39
2022-11-06T17:45:50.106Z,100394.71
2022-11-06T17:48:17.703Z,100390.96
2022-11-06T17:51:03.324Z,100388.69
2022-11-06T17:53:30.068Z,100385.11
2022-11-06T17:55:56.797Z,100380.45
2022-11-06T17:58:23.484Z,100379.25
2022-11-06T18:00:50.306Z,100377.80
2022-11-06T18:03:20.516Z,100375.96
2022-11-06T18:05:47.553Z,100373.77
2022-11-06T18:08:14.583Z,100371.77
2022-11-06T18:10:41.639Z,100367.31
2022-11-06T18:13:08.418Z,100365.29
2022-11-06T18:15:35.840Z,100363.84
2022-11-06T18:18:03.092Z,100367.17
2022-11-06T18:20:29.833Z,100370.91
2022-11-06T18:22:56.569Z,100370.36
2022-11-06T18:25:23.299Z,100368.44
2022-11-06T18:27:50.030Z,100364.66
2022-11-06T18:30:16.723Z,100366.70
2022-11-06T18:32:43.449Z,100368.80
2022-11-06T18:35:10.149Z,100365.55
2022-11-06T18:37:36.872Z,100368.27
2022-11-06T18:40:03.970Z,100370.69
2022-11-06T18:42:31.141Z,100371.28
2022-11-06T18:44:57.935Z,100373.67
2022-11-06T18:47:24.740Z,100374.55
2022-11-06T18:49:51.484Z,100374.92
2022-11-06T18:52:37.918Z,100374.67
2022-11-06T18:55:06.364Z,100371.27
2022-11-06T18:57:33.081Z,100370.45
2022-11-06T18:59:59.791Z,100371.70
2022-11-06T19:02:26.837Z,100375.40
2022-11-06T19:04:53.765Z,100372.91
2022-11-06T19:07:20.697Z,100376.77
2022-11-06T19:09:47.514Z,100378.02
2022-11-06T19:12:14.135Z,100376.44
2022-11-06T19:14:40.841Z,100375.65
2022-11-06T19:17:07.629Z,100378.11
2022-11-06T19:19:34.334Z,100375.37
2022-11-06T19:22:01.041Z,100379.17
2022-11-06T19:24:27.869Z,100379.67
2022-11-06T19:26:54.663Z,100378.00
2022-11-06T19:29:21.439Z,100378.38
2022-11-06T19:31:48.190Z,100377.42
2022-11-06T19:34:15.046Z,100382.72
2022-11-06T19:36:41.735Z,100379.52
2022-11-06T19:42:01.158Z,100375.29
2022-11-06T19:44:27.924Z,100382.40
2022-11-06T19:46:54.819Z,100386.17
2022-11-06T19:49:23.265Z,100374.23
2022-11-06T19:51:50.020Z,100385.35
2022-11-06T19:54:17.288Z,100383.73
2022-11-06T19:57:29.640Z,100386.94
2022-11-06T19:59:30.865Z,100390.59
2022-11-06T20:01:57.659Z,100390.58
2022-11-06T20:04:24.571Z,100387.02
2022-11-06T20:06:52.309Z,100385.89
2022-11-06T20:09:18.996Z,100387.98
2022-11-06T20:11:45.968Z,100384.64
2022-11-06T20:14:14.524Z,100379.43
2022-11-06T20:16:42.073Z,100379.23
2022-11-06T20:19:09.712Z,100376.65
2022-11-06T20:21:36.484Z,100373.87
2022-11-06T20:24:03.359Z,100373.96
2022-11-06T20:26:30.100Z,100371.98
2022-11-06T20:28:56.846Z,100368.52
2022-11-06T20:31:23.572Z,100370.39
2022-11-06T20:33:50.499Z,100377.66
2022-11-06T20:36:23.223Z,100375.38
2022-11-06T20:38:50.786Z,100375.14
2022-11-06T20:41:17.840Z,100374.34
2022-11-06T20:43:45.010Z,100375.76
2022-11-06T20:46:11.913Z,100372.14
2022-11-06T20:48:38.923Z,100369.73
2022-11-06T20:51:07.649Z,100371.57
2022-11-06T20:53:34.700Z,100370.55
2022-11-06T20:56:03.028Z,100368.00
2022-11-06T20:58:30.278Z,100367.95
2022-11-06T21:01:03.837Z,100363.56
2022-11-06T21:03:30.691Z,100364.90
2022-11-06T21:05:57.378Z,100362.08
2022-11-06T21:08:24.182Z,100360.66
2022-11-06T21:11:13.110Z,100355.59
2022-11-06T21:13:40.702Z,100353.33
2022-11-06T21:16:12.550Z,100347.70
2022-11-06T21:18:39.385Z,100351.87
2022-11-06T21:21:07.184Z,100349.30
2022-11-06T21:23:34.396Z,100346.05
2022-11-06T21:26:12.474Z,100346.19
2022-11-06T21:28:39.591Z,100340.19
2022-11-06T21:31:08.574Z,100348.67
2022-11-06T21:33:35.289Z,100351.39
2022-11-06T21:36:10.159Z,100350.05
2022-11-06T21:38:36.978Z,100353.61
2022-11-06T21:41:07.094Z,100344.73
2022-11-06T21:43:34.121Z,100348.27
2022-11-06T21:46:02.593Z,100347.34
2022-11-06T21:48:45.315Z,100342.73
2022-11-06T21:51:15.867Z,100342.49
2022-11-06T21:54:01.314Z,100338.24
2022-11-06T21:56:28.062Z,100336.20
2022-11-06T21:58:57.237Z,100334.38
2022-11-06T22:01:24.480Z,100331.76
2022-11-06T22:03:51.512Z,100333.75
2022-11-06T22:06:23.678Z,100334.04
2022-11-06T22:08:50.901Z,100335.70
2022-11-06T22:11:19.321Z,100333.80
2022-11-06T22:13:46.408Z,100326.02
2022-11-06T22:16:13.990Z,100332.16
2022-11-06T22:18:41.173Z,100333.98
2022-11-06T22:21:18.956Z,100329.83
2022-11-06T22:23:46.054Z,100331.21
2022-11-06T22:26:17.632Z,100332.67
2022-11-06T22:28:44.919Z,100334.52
2022-11-06T22:31:11.735Z,100333.46
2022-11-06T22:33:38.544Z,100332.42
2022-11-06T22:36:09.940Z,100328.85
2022-11-06T22:38:37.065Z,100336.55
2022-11-06T22:41:04.689Z,100337.21
2022-11-06T22:43:31.607Z,100336.97
2022-11-06T22:46:05.857Z,100336.94
2022-11-06T22:48:32.884Z,100336.52
2022-11-06T22:51:03.723Z,100337.55
2022-11-06T22:53:30.566Z,100340.77
2022-11-06T22:55:57.523Z,100337.77
2022-11-06T22:58:24.825Z,100339.34
2022-11-06T23:00:52.547Z,100337.68
2022-11-06T23:03:19.667Z,100339.95
2022-11-06T23:05:46.583Z,100332.77
2022-11-06T23:08:13.751Z,100334.52
2022-11-06T23:10:40.776Z,100332.94
2022-11-06T23:13:07.492Z,100335.35
2022-11-06T23:15:34.342Z,100337.52
2022-11-06T23:18:01.050Z,100335.15
2022-11-06T23:20:29.751Z,100338.86
2022-11-06T23:22:57.585Z,100341.60
2022-11-06T23:25:24.405Z,100340.06
2022-11-06T23:27:51.135Z,100343.44
2022-11-06T23:30:18.580Z,100341.99
2022-11-06T23:32:45.369Z,100342.57
2022-11-06T23:35:13.855Z,100344.70
2022-11-06T23:37:42.245Z,100343.31
2022-11-06T23:40:09.593Z,100345.92
2022-11-06T23:42:36.442Z,100343.60
2022-11-06T23:45:21.707Z,100343.70
2022-11-06T23:47:50.006Z,100344.08
2022-11-06T23:50:17.092Z,100340.88
2022-11-06T23:52:44.436Z,100344.39
2022-11-06T23:55:11.356Z,100345.18
2022-11-06T23:57:38.152Z,100342.48
